首页
METAR-TAF:

METAR-TAF

机场 :

Daniel Field Airport

奥古斯塔, 喬治亞, 美国

纬度: 33-28-01N, 经度: 082-02-19W, 海拔: 128米

当前天气观测

该预报发布于1小时和15分钟前的22:53 UTC
静风
温度 14°C
湿度 58%
气压 1023 hPa
能見度: 16.1公里
天空无云

METAR: KDNL 172253Z AUTO 00000KT 10SM CLR 14/06 A3022 RMK AO2 SLP233 T01440061

时间: 19:08 (00:08 UTC)

预报

该预报发布于38分钟前的23:30 UTC
预报有效从18日的 00点(UTC)到 18日的 24点(UTC)
风速3节,风向多变
能見度: 10公里
多云层高于25000英尺
从 18日的 0900点(UTC)
风速3节,风向多变
能見度: 10公里
散云层高于4500英尺
多云层高于12000英尺
从 18日的 1200点(UTC)
风速3节,风向多变
能見度: 10公里
多云层高于4500英尺

TAF: KDNL 172330Z 1800/1824 VRB03KT P6SM BKN250 FM180900 VRB03KT P6SM SCT045 BKN120 FM181200 VRB03KT P6SM BKN045

超过4000个机场的气象观测和天气预报(METAR&TAF报告)。

可查询的气象台以黄色和红色小点在地图上表示。

将鼠标移到小点上方,可查看气象台名称。

然后点击查看天气观测和预报。

如需切换地图:点击带黑十字的绿色按钮放大地图;点击带横线的绿色按钮缩小地图;或者点击绿色箭头查看邻近地区的地图。


METAR-TAF: